createdAt,value
2018-09-19T00:00:09.981Z,15.90
2018-09-19T00:02:38.216Z,15.80
2018-09-19T00:05:06.413Z,15.90
2018-09-19T00:07:34.621Z,15.90
2018-09-19T00:10:03.177Z,16.00
2018-09-19T00:12:31.340Z,16.00
2018-09-19T00:14:59.552Z,16.10
2018-09-19T00:17:27.737Z,16.20
2018-09-19T00:19:55.958Z,16.40
2018-09-19T00:22:24.163Z,16.40
2018-09-19T00:24:52.332Z,16.50
2018-09-19T00:27:20.559Z,16.50
2018-09-19T00:29:48.765Z,16.50
2018-09-19T00:32:16.969Z,16.50
2018-09-19T00:34:45.147Z,16.40
2018-09-19T00:37:13.377Z,16.40
2018-09-19T00:39:41.566Z,16.30
2018-09-19T00:42:09.734Z,16.30
2018-09-19T00:44:37.978Z,16.40
2018-09-19T00:47:06.194Z,16.40
2018-09-19T00:49:34.417Z,16.50
2018-09-19T00:52:02.641Z,16.50
2018-09-19T00:54:30.849Z,16.40
2018-09-19T00:56:59.045Z,16.50
2018-09-19T00:59:27.203Z,16.50
2018-09-19T01:01:55.415Z,16.50
2018-09-19T01:04:23.646Z,16.20
2018-09-19T01:06:51.872Z,16.10
2018-09-19T01:09:20.079Z,16.10
2018-09-19T01:11:48.300Z,16.00
2018-09-19T01:14:16.504Z,15.80
2018-09-19T01:16:44.720Z,15.80
2018-09-19T01:19:12.930Z,15.70
2018-09-19T01:21:41.139Z,15.60
2018-09-19T01:24:09.295Z,15.60
2018-09-19T01:26:37.601Z,15.60
2018-09-19T01:29:05.930Z,15.60
2018-09-19T01:31:34.149Z,15.70
2018-09-19T01:34:02.366Z,15.80
2018-09-19T01:36:30.584Z,15.80
2018-09-19T01:38:58.802Z,15.90
2018-09-19T01:41:26.972Z,15.80
2018-09-19T01:43:55.188Z,15.80
2018-09-19T01:46:23.432Z,15.80
2018-09-19T01:48:51.615Z,15.80
2018-09-19T01:51:19.824Z,15.70
2018-09-19T01:53:47.993Z,15.70
2018-09-19T01:56:16.201Z,15.70
2018-09-19T01:58:44.414Z,15.90
2018-09-19T02:01:12.587Z,15.90
2018-09-19T02:03:40.863Z,16.00
2018-09-19T02:06:09.062Z,16.00
2018-09-19T02:08:37.268Z,16.10
2018-09-19T02:11:05.817Z,16.10
2018-09-19T02:13:33.990Z,16.10
2018-09-19T02:16:02.225Z,16.20
2018-09-19T02:18:30.408Z,16.10
2018-09-19T02:20:58.653Z,16.10
2018-09-19T02:23:26.802Z,16.10
2018-09-19T02:25:55.000Z,16.30
2018-09-19T02:28:23.352Z,16.30
2018-09-19T02:30:51.537Z,16.20
2018-09-19T02:33:19.772Z,16.20
2018-09-19T02:35:48.000Z,16.10
2018-09-19T02:38:16.201Z,16.10
2018-09-19T02:40:44.450Z,16.10
2018-09-19T02:43:12.717Z,16.10
2018-09-19T02:45:40.953Z,16.00
2018-09-19T02:48:09.121Z,15.90
2018-09-19T02:50:37.328Z,15.90
2018-09-19T02:53:05.837Z,15.90
2018-09-19T02:55:34.101Z,15.90
2018-09-19T02:58:02.303Z,15.90
2018-09-19T03:00:30.474Z,15.90
2018-09-19T03:02:58.692Z,15.90
2018-09-19T03:05:26.850Z,15.90
2018-09-19T03:07:55.063Z,15.90
2018-09-19T03:10:23.278Z,15.90
2018-09-19T03:12:51.453Z,15.80
2018-09-19T03:15:19.667Z,15.90
2018-09-19T03:17:47.921Z,15.80
2018-09-19T03:20:16.098Z,15.80
2018-09-19T03:22:44.266Z,15.70
2018-09-19T03:25:12.473Z,15.70
2018-09-19T03:27:40.682Z,15.60
2018-09-19T03:30:08.863Z,15.70
2018-09-19T03:32:37.062Z,15.70
2018-09-19T03:35:05.308Z,15.70
2018-09-19T03:37:33.500Z,15.60
2018-09-19T03:40:01.712Z,15.60
2018-09-19T03:42:29.886Z,15.70
2018-09-19T03:44:58.149Z,15.70
2018-09-19T03:47:26.311Z,15.60
2018-09-19T03:49:54.544Z,15.70
2018-09-19T03:52:22.702Z,15.60
2018-09-19T03:54:50.896Z,15.60
2018-09-19T03:57:19.102Z,15.60
2018-09-19T03:59:47.270Z,15.60
2018-09-19T04:02:15.483Z,15.50
2018-09-19T04:04:43.652Z,15.50
2018-09-19T04:07:11.852Z,15.50
2018-09-19T04:09:40.050Z,15.50
2018-09-19T04:12:08.228Z,15.50
2018-09-19T04:14:36.429Z,15.50
2018-09-19T04:17:04.604Z,15.50
2018-09-19T04:19:32.861Z,15.40
2018-09-19T04:22:01.044Z,15.40
2018-09-19T04:24:29.228Z,15.40
2018-09-19T04:26:57.373Z,15.50
2018-09-19T04:29:25.609Z,15.50
2018-09-19T04:31:53.804Z,15.50
2018-09-19T04:34:22.040Z,15.40
2018-09-19T04:36:50.270Z,15.30
2018-09-19T04:39:18.463Z,15.20
2018-09-19T04:41:46.664Z,15.20
2018-09-19T04:44:14.936Z,15.20
2018-09-19T04:46:43.172Z,15.20
2018-09-19T04:49:11.421Z,15.20
2018-09-19T04:51:40.214Z,15.20
2018-09-19T04:54:08.802Z,15.30
2018-09-19T04:56:37.452Z,15.30
2018-09-19T04:59:05.775Z,15.30
2018-09-19T05:01:33.955Z,15.20
2018-09-19T05:04:02.187Z,15.30
2018-09-19T05:06:30.467Z,15.30
2018-09-19T05:08:58.959Z,15.30
2018-09-19T05:11:27.418Z,15.30
2018-09-19T05:13:56.163Z,15.30
2018-09-19T05:16:24.416Z,15.30
2018-09-19T05:18:52.597Z,15.40
2018-09-19T05:21:20.804Z,15.40
2018-09-19T05:23:49.344Z,15.50
2018-09-19T05:26:17.549Z,15.50
2018-09-19T05:28:45.790Z,15.40
2018-09-19T05:31:13.944Z,15.30
2018-09-19T05:33:42.166Z,15.40
2018-09-19T05:36:10.336Z,15.40
2018-09-19T05:38:38.550Z,15.40
2018-09-19T05:41:07.098Z,15.40
2018-09-19T05:43:35.276Z,15.30
2018-09-19T05:46:03.591Z,15.40
2018-09-19T05:48:31.830Z,15.40
2018-09-19T05:51:00.034Z,15.40
2018-09-19T05:53:28.497Z,15.20
2018-09-19T05:55:56.732Z,15.10
2018-09-19T05:58:25.021Z,15.10
2018-09-19T06:00:53.360Z,15.10
2018-09-19T06:03:21.595Z,15.30
2018-09-19T06:05:49.768Z,15.50
2018-09-19T06:08:18.069Z,15.80
2018-09-19T06:10:46.277Z,16.00
2018-09-19T06:13:14.500Z,16.10
2018-09-19T06:15:42.656Z,16.20
2018-09-19T06:18:10.828Z,16.40
2018-09-19T06:20:39.027Z,16.60
2018-09-19T06:23:07.209Z,16.70
2018-09-19T06:25:35.437Z,16.80
2018-09-19T06:28:03.727Z,16.90
2018-09-19T06:30:31.946Z,17.20
2018-09-19T06:33:00.306Z,17.30
2018-09-19T06:35:28.384Z,17.40
2018-09-19T06:37:56.616Z,17.40
2018-09-19T06:40:24.868Z,17.40
2018-09-19T06:42:53.213Z,17.40
2018-09-19T06:45:28.209Z,17.30
2018-09-19T06:47:56.468Z,17.30
2018-09-19T06:50:24.698Z,17.20
2018-09-19T06:52:52.856Z,16.90
2018-09-19T06:55:21.069Z,16.90
2018-09-19T06:57:49.244Z,16.90
2018-09-19T07:00:17.464Z,17.00
2018-09-19T07:02:45.693Z,17.00
2018-09-19T07:05:13.856Z,17.00
2018-09-19T07:07:42.043Z,17.10
2018-09-19T07:10:10.208Z,17.10
2018-09-19T07:12:38.404Z,16.90
2018-09-19T07:15:06.621Z,17.00
2018-09-19T07:17:34.773Z,17.00
2018-09-19T07:20:03.057Z,17.00
2018-09-19T07:22:31.222Z,17.00
2018-09-19T07:24:59.423Z,17.00
2018-09-19T07:27:27.682Z,17.00
2018-09-19T07:29:55.853Z,17.20
2018-09-19T07:32:24.049Z,17.40
2018-09-19T07:34:52.267Z,17.60
2018-09-19T07:37:20.489Z,17.70
2018-09-19T07:39:48.799Z,17.80
2018-09-19T07:42:17.001Z,17.90
2018-09-19T07:44:45.215Z,17.90
2018-09-19T07:47:13.423Z,18.00
2018-09-19T07:49:41.669Z,18.30
2018-09-19T07:52:09.840Z,18.50
2018-09-19T07:54:38.082Z,18.60
2018-09-19T07:57:06.385Z,18.80
2018-09-19T07:59:34.787Z,19.10
2018-09-19T08:02:03.108Z,19.20
2018-09-19T08:04:31.313Z,19.10
2018-09-19T08:06:59.565Z,19.00
2018-09-19T08:09:27.734Z,18.80
2018-09-19T08:11:56.013Z,18.70
2018-09-19T08:14:24.163Z,18.80
2018-09-19T08:16:52.436Z,18.80
2018-09-19T08:19:20.608Z,18.90
2018-09-19T08:21:48.817Z,19.00
2018-09-19T08:24:17.026Z,19.20
2018-09-19T08:26:45.229Z,19.40
2018-09-19T08:29:13.489Z,19.60
2018-09-19T08:31:41.686Z,19.70
2018-09-19T08:34:09.868Z,19.70
2018-09-19T08:36:38.084Z,19.70
2018-09-19T08:39:07.797Z,19.30
2018-09-19T08:41:35.992Z,19.20
2018-09-19T08:44:04.204Z,19.10
2018-09-19T08:46:32.497Z,19.00
2018-09-19T08:49:00.724Z,18.90
2018-09-19T08:51:28.887Z,18.80
2018-09-19T08:53:57.080Z,18.90
2018-09-19T08:56:25.280Z,19.00
2018-09-19T08:58:53.490Z,18.90
2018-09-19T09:01:21.692Z,18.90
2018-09-19T09:03:49.860Z,18.90
2018-09-19T09:06:18.053Z,18.80
2018-09-19T09:08:46.327Z,18.90
2018-09-19T09:11:14.528Z,18.80
2018-09-19T09:13:42.733Z,18.80
2018-09-19T09:16:10.889Z,18.80
2018-09-19T09:18:39.125Z,18.80
2018-09-19T09:21:07.415Z,18.90
2018-09-19T09:23:35.622Z,19.00
2018-09-19T09:26:03.848Z,19.20
2018-09-19T09:28:32.020Z,19.20
2018-09-19T09:31:00.315Z,19.20
2018-09-19T09:33:28.467Z,19.30
2018-09-19T09:35:56.661Z,19.60
2018-09-19T09:38:24.835Z,19.80
2018-09-19T09:40:53.034Z,20.10
2018-09-19T09:43:21.283Z,20.40
2018-09-19T09:45:49.836Z,20.60
2018-09-19T09:48:18.064Z,21.00
2018-09-19T09:50:46.297Z,21.30
2018-09-19T09:53:14.508Z,21.40
2018-09-19T09:55:42.745Z,21.40
2018-09-19T09:58:10.945Z,21.40
2018-09-19T10:00:40.813Z,21.20
2018-09-19T10:03:09.945Z,21.20
2018-09-19T10:05:38.535Z,21.20
2018-09-19T10:08:06.962Z,21.40
2018-09-19T10:10:35.543Z,21.40
2018-09-19T10:13:04.102Z,21.40
2018-09-19T10:15:32.317Z,21.40
2018-09-19T10:18:00.493Z,21.40
2018-09-19T10:20:28.745Z,21.70
2018-09-19T10:22:56.999Z,21.90
2018-09-19T10:25:25.429Z,22.20
2018-09-19T10:27:53.668Z,22.20
2018-09-19T10:30:21.849Z,22.00
2018-09-19T10:32:50.047Z,21.90
2018-09-19T10:35:18.290Z,22.20
2018-09-19T10:37:46.528Z,22.60
2018-09-19T10:40:14.750Z,22.80
2018-09-19T10:42:43.112Z,23.00
2018-09-19T10:45:11.334Z,23.10
2018-09-19T10:47:39.512Z,23.10
2018-09-19T10:50:07.761Z,23.10
2018-09-19T10:52:35.994Z,23.20
2018-09-19T10:55:04.260Z,23.30
2018-09-19T10:57:32.461Z,23.40
2018-09-19T11:00:00.952Z,23.50
2018-09-19T11:02:29.166Z,23.50
2018-09-19T11:04:57.339Z,23.60
2018-09-19T11:07:25.565Z,23.60
2018-09-19T11:09:53.748Z,23.60
2018-09-19T11:12:21.940Z,23.50
2018-09-19T11:14:50.125Z,23.60
2018-09-19T11:17:18.319Z,23.90
2018-09-19T11:19:46.519Z,23.90
2018-09-19T11:22:14.733Z,23.90
2018-09-19T11:24:42.904Z,24.10
2018-09-19T11:27:11.141Z,24.00
2018-09-19T11:29:39.330Z,24.10
2018-09-19T11:32:07.516Z,24.30
2018-09-19T11:34:35.721Z,24.30
2018-09-19T11:37:03.916Z,24.40
2018-09-19T11:39:32.108Z,24.40
2018-09-19T11:42:00.316Z,24.30
2018-09-19T11:44:28.526Z,24.50
2018-09-19T11:46:56.729Z,24.30
2018-09-19T11:49:24.978Z,24.60
2018-09-19T11:51:53.272Z,24.80
2018-09-19T11:54:21.457Z,24.60
2018-09-19T11:56:49.689Z,24.80
2018-09-19T11:59:17.857Z,25.20
2018-09-19T12:01:46.083Z,25.20
2018-09-19T12:04:14.283Z,25.20
2018-09-19T12:06:42.469Z,25.40
2018-09-19T12:09:12.209Z,25.40
2018-09-19T12:11:40.415Z,25.60
2018-09-19T12:14:08.741Z,25.90
2018-09-19T12:16:37.413Z,26.20
2018-09-19T12:19:06.079Z,26.50
2018-09-19T12:21:34.293Z,26.50
2018-09-19T12:24:02.721Z,26.50
2018-09-19T12:26:30.929Z,26.50
2018-09-19T12:28:59.189Z,26.60
2018-09-19T12:31:27.373Z,26.70
2018-09-19T12:33:55.585Z,26.50
2018-09-19T12:36:24.605Z,26.30
2018-09-19T12:38:52.805Z,26.40
2018-09-19T12:41:21.109Z,26.50
2018-09-19T12:43:49.545Z,26.30
2018-09-19T12:46:17.732Z,26.40
2018-09-19T12:48:45.880Z,26.70
2018-09-19T12:51:14.077Z,26.60
2018-09-19T12:53:42.312Z,26.80
2018-09-19T12:56:10.657Z,27.10
2018-09-19T12:58:39.036Z,27.00
2018-09-19T13:01:07.268Z,27.30
2018-09-19T13:03:35.460Z,27.40
2018-09-19T13:06:03.653Z,27.30
2018-09-19T13:08:31.896Z,27.20
2018-09-19T13:11:00.101Z,27.10
2018-09-19T13:13:28.285Z,26.90
2018-09-19T13:15:56.468Z,26.90
2018-09-19T13:18:24.642Z,26.90
2018-09-19T13:20:52.833Z,26.80
2018-09-19T13:23:21.024Z,27.00
2018-09-19T13:25:49.168Z,27.10
2018-09-19T13:28:17.446Z,26.60
2018-09-19T13:30:45.603Z,26.70
2018-09-19T13:33:13.788Z,27.10
2018-09-19T13:35:42.005Z,27.30
2018-09-19T13:38:10.165Z,27.50
2018-09-19T13:40:38.760Z,27.80
2018-09-19T13:43:07.065Z,27.60
2018-09-19T13:45:35.281Z,27.60
2018-09-19T13:48:03.525Z,27.40
2018-09-19T13:50:41.460Z,27.30
2018-09-19T13:53:09.937Z,27.30
2018-09-19T13:55:39.064Z,26.90
2018-09-19T13:58:07.252Z,27.10
2018-09-19T14:00:35.433Z,27.30
2018-09-19T14:03:03.656Z,27.30
2018-09-19T14:05:31.857Z,27.40
2018-09-19T14:08:00.033Z,27.40
2018-09-19T14:10:28.235Z,27.40
2018-09-19T14:12:56.389Z,27.40
2018-09-19T14:15:24.595Z,27.30
2018-09-19T14:17:52.789Z,27.40
2018-09-19T14:20:20.959Z,27.40
2018-09-19T14:22:49.166Z,27.30
2018-09-19T14:25:17.332Z,27.30
2018-09-19T14:27:45.521Z,27.30
2018-09-19T14:30:13.732Z,27.30
2018-09-19T14:32:41.965Z,27.50
2018-09-19T14:35:10.112Z,27.50
2018-09-19T14:37:38.288Z,27.10
2018-09-19T14:40:06.605Z,26.90
2018-09-19T14:42:35.096Z,27.00
2018-09-19T14:45:03.324Z,26.70
2018-09-19T14:47:31.508Z,26.50
2018-09-19T14:50:02.802Z,26.20
2018-09-19T14:52:31.012Z,26.00
2018-09-19T14:54:59.221Z,26.10
2018-09-19T14:57:27.372Z,26.10
2018-09-19T14:59:55.573Z,25.80
2018-09-19T15:02:24.460Z,25.60
2018-09-19T15:04:52.749Z,25.50
2018-09-19T15:07:20.929Z,25.40
2018-09-19T15:09:49.342Z,25.50
2018-09-19T15:12:17.533Z,25.70
2018-09-19T15:14:45.697Z,25.70
2018-09-19T15:17:13.917Z,25.60
2018-09-19T15:19:42.276Z,25.40
2018-09-19T15:22:10.508Z,25.40
2018-09-19T15:24:38.692Z,25.40
2018-09-19T15:27:07.217Z,25.20
2018-09-19T15:29:35.413Z,25.20
2018-09-19T15:32:03.593Z,25.20
2018-09-19T15:34:31.784Z,25.10
2018-09-19T15:36:59.954Z,25.00
2018-09-19T15:39:28.149Z,24.90
2018-09-19T15:41:56.325Z,24.90
2018-09-19T15:44:24.588Z,24.90
2018-09-19T15:46:52.761Z,24.80
2018-09-19T15:49:20.920Z,24.70
2018-09-19T15:51:49.116Z,24.60
2018-09-19T15:54:17.340Z,24.50
2018-09-19T15:56:45.553Z,24.40
2018-09-19T15:59:13.758Z,24.30
2018-09-19T16:01:41.939Z,24.20
2018-09-19T16:04:10.148Z,24.00
2018-09-19T16:06:38.309Z,24.00
2018-09-19T16:09:08.873Z,23.90
2018-09-19T16:11:37.056Z,23.80
2018-09-19T16:14:05.284Z,23.70
2018-09-19T16:16:33.500Z,23.60
2018-09-19T16:19:01.681Z,23.60
2018-09-19T16:21:29.893Z,23.50
2018-09-19T16:23:58.103Z,23.50
2018-09-19T16:26:26.285Z,23.40
2018-09-19T16:28:54.625Z,23.20
2018-09-19T16:31:22.804Z,23.10
2018-09-19T16:33:51.005Z,23.10
2018-09-19T16:36:19.229Z,23.00
2018-09-19T16:38:47.394Z,22.90
2018-09-19T16:41:15.614Z,22.80
2018-09-19T16:43:43.791Z,22.70
2018-09-19T16:46:11.985Z,22.60
2018-09-19T16:48:40.177Z,22.50
2018-09-19T16:51:08.873Z,22.40
2018-09-19T16:53:37.106Z,22.40
2018-09-19T16:56:05.313Z,22.30
2018-09-19T16:58:34.517Z,22.20
2018-09-19T17:01:02.732Z,22.10
2018-09-19T17:03:30.892Z,22.00
2018-09-19T17:05:59.161Z,22.00
2018-09-19T17:08:27.333Z,21.90
2018-09-19T17:10:55.549Z,21.80
2018-09-19T17:13:23.740Z,21.70
2018-09-19T17:15:52.138Z,21.60
2018-09-19T17:18:20.408Z,21.50
2018-09-19T17:20:48.659Z,21.40
2018-09-19T17:23:16.853Z,21.40
2018-09-19T17:25:45.049Z,21.30
2018-09-19T17:28:13.269Z,21.30
2018-09-19T17:30:41.502Z,21.20
2018-09-19T17:33:09.690Z,21.10
2018-09-19T17:35:37.937Z,21.10
2018-09-19T17:38:06.241Z,21.00
2018-09-19T17:40:34.433Z,20.90
2018-09-19T17:43:02.653Z,20.90
2018-09-19T17:45:30.901Z,20.80
2018-09-19T17:47:59.119Z,20.70
2018-09-19T17:50:27.409Z,20.70
2018-09-19T17:52:56.280Z,20.70
2018-09-19T17:55:25.010Z,20.60
2018-09-19T17:57:53.257Z,20.60
2018-09-19T18:00:21.644Z,20.50
2018-09-19T18:02:51.693Z,20.50
2018-09-19T18:05:20.495Z,20.50
2018-09-19T18:07:48.689Z,20.50
2018-09-19T18:10:16.921Z,20.40
2018-09-19T18:12:45.122Z,20.40
2018-09-19T18:15:13.497Z,20.30
2018-09-19T18:17:41.726Z,20.20
2018-09-19T18:20:10.424Z,20.10
2018-09-19T18:22:39.625Z,20.00
2018-09-19T18:25:08.589Z,19.90
2018-09-19T18:27:36.809Z,19.80
2018-09-19T18:30:06.061Z,19.70
2018-09-19T18:32:34.283Z,19.70
2018-09-19T18:35:02.733Z,19.60
2018-09-19T18:37:31.853Z,19.70
2018-09-19T18:40:01.371Z,19.60
2018-09-19T18:42:30.198Z,19.60
2018-09-19T18:44:58.422Z,19.50
2018-09-19T18:47:26.602Z,19.40
2018-09-19T18:49:54.984Z,19.20
2018-09-19T18:52:23.233Z,19.20
2018-09-19T18:54:51.457Z,19.10
2018-09-19T18:57:19.673Z,19.20
2018-09-19T18:59:48.641Z,19.20
2018-09-19T19:02:18.318Z,19.20
2018-09-19T19:04:46.493Z,19.20
2018-09-19T19:07:17.260Z,19.20
2018-09-19T19:09:46.225Z,19.30
2018-09-19T19:12:15.373Z,19.30
2018-09-19T19:14:43.629Z,19.30
2018-09-19T19:17:11.797Z,19.30
2018-09-19T19:19:40.273Z,19.30
2018-09-19T19:22:08.745Z,19.30
2018-09-19T19:24:37.009Z,19.30
2018-09-19T19:27:05.886Z,19.30
2018-09-19T19:29:34.485Z,19.30
2018-09-19T19:32:02.752Z,19.10
2018-09-19T19:34:30.913Z,19.00
2018-09-19T19:36:59.101Z,18.80
2018-09-19T19:39:27.277Z,18.80
2018-09-19T19:41:55.479Z,18.70
2018-09-19T19:44:23.773Z,18.60
2018-09-19T19:46:52.346Z,18.60
2018-09-19T19:49:20.622Z,18.60
2018-09-19T19:51:48.806Z,18.70
2018-09-19T19:54:17.009Z,18.60
2018-09-19T19:56:45.236Z,18.70
2018-09-19T19:59:13.427Z,18.70
2018-09-19T20:01:41.645Z,18.60
2018-09-19T20:04:09.878Z,18.60
2018-09-19T20:06:38.281Z,18.60
2018-09-19T20:09:08.033Z,18.50
2018-09-19T20:11:36.444Z,18.30
2018-09-19T20:14:04.697Z,18.10
2018-09-19T20:16:32.869Z,18.00
2018-09-19T20:19:01.477Z,17.90
2018-09-19T20:21:29.624Z,17.90
2018-09-19T20:23:58.380Z,18.00
2018-09-19T20:26:26.584Z,18.00
2018-09-19T20:28:54.753Z,18.10
2018-09-19T20:31:22.941Z,18.10
2018-09-19T20:33:51.236Z,18.20
2018-09-19T20:36:20.817Z,18.20
2018-09-19T20:38:49.017Z,18.20
2018-09-19T20:41:17.247Z,18.20
2018-09-19T20:43:45.420Z,18.20
2018-09-19T20:46:13.585Z,18.20
2018-09-19T20:48:41.768Z,18.00
2018-09-19T20:51:09.997Z,17.90
2018-09-19T20:53:38.246Z,17.90
2018-09-19T20:56:06.553Z,18.00
2018-09-19T20:58:34.693Z,17.90
2018-09-19T21:01:02.965Z,17.80
2018-09-19T21:03:31.096Z,17.90
2018-09-19T21:06:06.325Z,18.00
2018-09-19T21:08:34.797Z,18.00
2018-09-19T21:11:03.248Z,18.00
2018-09-19T21:13:31.468Z,18.00
2018-09-19T21:15:59.600Z,18.00
2018-09-19T21:18:27.800Z,17.90
2018-09-19T21:20:55.966Z,17.90
2018-09-19T21:23:24.125Z,17.90
2018-09-19T21:25:52.318Z,17.80
2018-09-19T21:28:20.533Z,17.80
2018-09-19T21:30:48.697Z,17.90
2018-09-19T21:33:17.209Z,17.80
2018-09-19T21:35:45.392Z,17.70
2018-09-19T21:38:13.624Z,17.60
2018-09-19T21:40:41.833Z,17.50
2018-09-19T21:43:10.063Z,17.50
2018-09-19T21:45:38.286Z,17.60
2018-09-19T21:48:06.464Z,17.50
2018-09-19T21:50:34.681Z,17.40
2018-09-19T21:53:02.882Z,17.30
2018-09-19T21:55:31.161Z,17.30
2018-09-19T21:57:59.434Z,17.10
2018-09-19T22:00:27.637Z,17.10
2018-09-19T22:02:55.950Z,17.10
2018-09-19T22:05:24.130Z,17.10
2018-09-19T22:07:52.337Z,17.10
2018-09-19T22:10:20.549Z,17.20
2018-09-19T22:12:48.720Z,17.20
2018-09-19T22:15:16.921Z,17.20
2018-09-19T22:17:45.272Z,17.10
2018-09-19T22:20:13.669Z,17.10
2018-09-19T22:22:41.889Z,17.10
2018-09-19T22:25:10.140Z,17.10
2018-09-19T22:27:38.434Z,17.10
2018-09-19T22:30:06.614Z,17.00
2018-09-19T22:32:34.871Z,17.00
2018-09-19T22:35:03.110Z,17.00
2018-09-19T22:37:31.302Z,17.00
2018-09-19T22:39:59.573Z,17.00
2018-09-19T22:42:27.769Z,17.00
2018-09-19T22:44:55.993Z,17.00
2018-09-19T22:47:24.237Z,17.00
2018-09-19T22:49:52.643Z,16.80
2018-09-19T22:52:20.848Z,16.80
2018-09-19T22:54:49.029Z,16.80
2018-09-19T22:57:17.220Z,16.70
2018-09-19T22:59:45.449Z,16.80
2018-09-19T23:02:13.615Z,16.80
2018-09-19T23:04:41.834Z,16.80
2018-09-19T23:07:09.997Z,16.80
2018-09-19T23:09:38.192Z,16.80
2018-09-19T23:12:06.529Z,16.80
2018-09-19T23:14:34.710Z,16.90
2018-09-19T23:17:02.930Z,16.90
2018-09-19T23:19:31.097Z,16.90
2018-09-19T23:21:59.304Z,16.80
2018-09-19T23:24:27.452Z,16.80
2018-09-19T23:26:55.640Z,16.80
2018-09-19T23:29:23.865Z,16.60
2018-09-19T23:31:52.033Z,16.60
2018-09-19T23:34:20.223Z,16.60
2018-09-19T23:36:48.391Z,16.60
2018-09-19T23:39:16.588Z,16.60
2018-09-19T23:41:44.757Z,16.60
2018-09-19T23:44:12.957Z,16.60
2018-09-19T23:46:41.248Z,16.60
2018-09-19T23:49:09.417Z,16.60
2018-09-19T23:51:37.640Z,16.70
2018-09-19T23:54:06.392Z,16.80
2018-09-19T23:56:34.596Z,16.70
2018-09-19T23:59:02.798Z,16.70
